| time (UTC) | temp C | wind direction | speed KPH | gust KPH | rain 1hr cm | rain 24hr cm | rain mn cm | humidity % | barometer mb |
| 20260507131044 | 13 | 223 | 1.6 | 4.8 | 0.00 | 3.23 | 0.89 | 67 | 1013.8 |
| 20260507130035 | 14 | 324 | 3.2 | 6.4 | 0.00 | 3.25 | 0.89 | 65 | 1013.8 |
| 20260507125026 | 14 | 146 | 0.0 | 3.2 | 0.00 | 3.25 | 0.89 | 65 | 1013.8 |
| 20260507124018 | 14 | 160 | 1.6 | 4.8 | 0.00 | 3.25 | 0.89 | 66 | 1013.7 |
| 20260507123041 | 14 | 204 | 3.2 | 4.8 | 0.00 | 3.25 | 0.89 | 64 | 1013.8 |
| 20260507122031 | 13 | 247 | 1.6 | 4.8 | 0.00 | 3.25 | 0.89 | 67 | 1013.6 |
| 20260507121022 | 13 | 10 | 0.0 | 3.2 | 0.00 | 3.25 | 0.89 | 68 | 1013.7 |
| 20260507120044 | 13 | 272 | 0.0 | 3.2 | 0.00 | 3.25 | 0.89 | 72 | 1013.7 |
| 20260507115036 | 13 | 328 | 1.6 | 3.2 | 0.00 | 3.25 | 0.89 | 72 | 1013.7 |
| 20260507114027 | 13 | 311 | 0.0 | 3.2 | 0.00 | 3.25 | 0.89 | 71 | 1013.6 |
| 20260507113019 | 13 | 132 | 1.6 | 6.4 | 0.00 | 3.25 | 0.89 | 72 | 1013.5 |
| 20260507112040 | 13 | 176 | 1.6 | 4.8 | 0.00 | 3.25 | 0.89 | 72 | 1013.6 |
| 20260507111032 | 13 | 0.0 | 1.6 | 0.00 | 3.25 | 0.89 | 72 | 1013.7 | |
| 20260507110043 | 12 | 144 | 0.0 | 4.8 | 0.00 | 3.25 | 0.89 | 76 | 1013.5 |
| 20260507105045 | 12 | 247 | 0.0 | 3.2 | 0.00 | 3.25 | 0.89 | 81 | 1013.7 |
| 20260507104057 | 12 | 183 | 0.0 | 3.2 | 0.00 | 3.25 | 0.89 | 82 | 1013.7 |
| 20260507103027 | 12 | 175 | 0.0 | 3.2 | 0.00 | 3.25 | 0.89 | 84 | 1013.6 |
| 20260507102019 | 11 | 179 | 3.2 | 3.2 | 0.00 | 3.25 | 0.89 | 84 | 1013.6 |
| 20260507101101 | 11 | 329 | 1.6 | 4.8 | 0.00 | 3.25 | 0.89 | 85 | 1013.6 |
| 20260507100032 | 12 | 331 | 1.6 | 8.0 | 0.00 | 3.23 | 0.89 | 88 | 1013.6 |
| 20260507095044 | 11 | 0.0 | 1.6 | 0.00 | 3.23 | 0.89 | 84 | 1013.5 | |
| 20260507094045 | 11 | 141 | 1.6 | 6.4 | 0.00 | 3.23 | 0.89 | 84 | 1013.4 |
| 20260507093037 | 11 | 161 | 1.6 | 6.4 | 0.00 | 3.23 | 0.89 | 84 | 1013.2 |
| 20260507092049 | 11 | 143 | 3.2 | 8.0 | 0.00 | 3.23 | 0.89 | 82 | 1013.3 |
| 20260507091040 | 11 | 195 | 1.6 | 4.8 | 0.00 | 3.23 | 0.89 | 83 | 1013.2 |
| 20260507090106 | 12 | 237 | 3.2 | 6.4 | 0.00 | 3.23 | 0.89 | 81 | 1013.1 |
| 20260507085033 | 11 | 7 | 1.6 | 3.2 | 0.00 | 3.23 | 0.89 | 82 | 1013.1 |
| 20260507084024 | 11 | 155 | 1.6 | 6.4 | 0.00 | 3.23 | 0.89 | 85 | 1013.0 |
| 20260507083046 | 11 | 231 | 3.2 | 11.3 | 0.00 | 3.23 | 0.89 | 86 | 1013.0 |
| 20260507082037 | 11 | 235 | 1.6 | 3.2 | 0.00 | 3.23 | 0.89 | 86 | 1012.9 |
| 20260507081029 | 11 | 228 | 1.6 | 3.2 | 0.00 | 3.23 | 0.89 | 88 | 1012.9 |
| 20260507080021 | 11 | 130 | 1.6 | 4.8 | 0.00 | 3.23 | 0.89 | 87 | 1012.9 |
| 20260507075042 | 10 | 0.0 | 3.2 | 0.00 | 3.23 | 0.89 | 89 | 1012.8 | |
| 20260507074034 | 10 | 0.0 | 1.6 | 0.00 | 3.23 | 0.89 | 90 | 1012.7 | |
| 20260507073025 | 10 | 172 | 0.0 | 3.2 | 0.00 | 3.23 | 0.89 | 90 | 1012.8 |
| 20260507072017 | 10 | 0.0 | 0.0 | 0.00 | 3.23 | 0.89 | 90 | 1012.6 | |
| 20260507071039 | 10 | 164 | 0.0 | 1.6 | 0.00 | 3.23 | 0.89 | 89 | 1012.5 |
| 20260507070031 | 10 | 0.0 | 1.6 | 0.00 | 3.23 | 0.89 | 88 | 1012.5 | |
| 20260507065021 | 10 | 0.0 | 1.6 | 0.00 | 3.23 | 0.89 | 92 | 1012.5 | |
| 20260507064043 | 10 | 0.0 | 0.0 | 0.00 | 3.23 | 0.89 | 91 | 1012.3 | |
| 20260507063034 | 10 | 0.0 | 3.2 | 0.00 | 3.23 | 0.89 | 90 | 1012.3 | |
| 20260507062026 | 10 | 250 | 0.0 | 1.6 | 0.00 | 3.23 | 0.89 | 91 | 1012.2 |
| 20260507061018 | 10 | 172 | 0.0 | 3.2 | 0.03 | 3.23 | 0.89 | 91 | 1012.1 |
| 20260507060059 | 10 | 0.0 | 3.2 | 0.03 | 3.23 | 0.89 | 90 | 1011.9 | |
| 20260507055031 | 10 | 103 | 0.0 | 3.2 | 0.03 | 3.23 | 0.86 | 92 | 1011.9 |
| 20260507054022 | 10 | 117 | 1.6 | 4.8 | 0.03 | 3.23 | 0.86 | 93 | 1012.0 |
| 20260507053044 | 9 | 329 | 0.0 | 1.6 | 0.03 | 3.23 | 0.86 | 93 | 1011.8 |
| 20260507052035 | 9 | 137 | 0.0 | 4.8 | 0.05 | 3.23 | 0.86 | 93 | 1011.7 |
| 20260507051027 | 9 | 147 | 0.0 | 4.8 | 0.05 | 3.20 | 0.86 | 95 | 1011.6 |
| 20260507050038 | 9 | 150 | 1.6 | 4.8 | 0.08 | 3.20 | 0.86 | 95 | 1011.6 |
| 20260507045040 | 9 | 111 | 1.6 | 3.2 | 0.08 | 3.20 | 0.84 | 95 | 1011.4 |
| 20260507044031 | 9 | 138 | 1.6 | 6.4 | 0.10 | 3.20 | 0.84 | 94 | 1011.3 |
| 20260507043023 | 9 | 169 | 1.6 | 4.8 | 0.08 | 3.20 | 0.84 | 95 | 1011.1 |
| 20260507042105 | 9 | 356 | 0.0 | 3.2 | 0.08 | 3.17 | 0.84 | 95 | 1011.1 |
| 20260507041037 | 10 | 320 | 0.0 | 3.2 | 0.08 | 3.15 | 0.81 | 93 | 1011.1 |
| 20260507040108 | 10 | 270 | 1.6 | 4.8 | 0.05 | 3.15 | 0.79 | 93 | 1011.0 |
| 20260507035019 | 10 | 259 | 3.2 | 6.4 | 0.05 | 3.12 | 0.79 | 92 | 1010.9 |
| 20260507034041 | 10 | 289 | 1.6 | 6.4 | 0.05 | 3.10 | 0.76 | 93 | 1010.9 |
| 20260507033033 | 10 | 267 | 3.2 | 6.4 | 0.10 | 3.10 | 0.76 | 94 | 1010.8 |
| 20260507032024 | 10 | 289 | 3.2 | 6.4 | 0.10 | 3.10 | 0.76 | 95 | 1010.6 |
| 20260507031037 | 10 | 262 | 3.2 | 9.7 | 0.10 | 3.10 | 0.74 | 95 | 1010.5 |
| 20260507030038 | 10 | 218 | 6.4 | 11.3 | 0.10 | 3.07 | 0.74 | 96 | 1010.3 |
| 20260507025030 | 10 | 259 | 4.8 | 8.0 | 0.13 | 3.07 | 0.71 | 96 | 1010.3 |
| 20260507024021 | 10 | 214 | 4.8 | 9.7 | 0.10 | 3.05 | 0.71 | 96 | 1010.1 |
| 20260507023044 | 10 | 224 | 4.8 | 9.7 | 0.10 | 3.02 | 0.66 | 96 | 1010.2 |
| 20260507022055 | 10 | 212 | 3.2 | 11.3 | 0.08 | 3.00 | 0.64 | 96 | 1010.0 |
| 20260507021027 | 10 | 237 | 3.2 | 6.4 | 0.08 | 2.97 | 0.64 | 95 | 1009.9 |
| 20260507020036 | 10 | 200 | 1.6 | 6.4 | 0.10 | 2.97 | 0.61 | 95 | 1009.8 |
| 20260507015051 | 10 | 255 | 1.6 | 6.4 | 0.10 | 2.95 | 0.61 | 95 | 1009.8 |
| 20260507014102 | 10 | 101 | 1.6 | 6.4 | 0.13 | 2.95 | 0.58 | 95 | 1009.7 |
| 20260507013029 | 10 | 96 | 3.2 | 9.7 | 0.13 | 2.92 | 0.58 | 95 | 1009.6 |
| 20260507012021 | 10 | 124 | 1.6 | 6.4 | 0.13 | 2.92 | 0.56 | 95 | 1009.6 |
| 20260507011104 | 10 | 165 | 3.2 | 6.4 | 0.13 | 2.90 | 0.56 | 95 | 1009.5 |
| 20260507010035 | 10 | 142 | 1.6 | 6.4 | 0.15 | 2.87 | 0.53 | 95 | 1009.4 |
| 20260507005026 | 10 | 226 | 3.2 | 6.4 | 0.15 | 2.84 | 0.51 | 95 | 1009.5 |
| 20260507004018 | 10 | 214 | 3.2 | 9.7 | 0.18 | 2.82 | 0.48 | 95 | 1009.4 |
| 20260507003040 | 10 | 254 | 3.2 | 6.4 | 0.18 | 2.79 | 0.46 | 94 | 1009.4 |
| 20260507002052 | 10 | 200 | 6.4 | 14.5 | 0.23 | 2.79 | 0.43 | 94 | 1009.3 |
| 20260507001024 | 10 | 211 | 11.3 | 19.3 | 0.25 | 2.77 | 0.43 | 95 | 1009.3 |
| 20260507000106 | 10 | 232 | 6.4 | 16.1 | 0.25 | 2.74 | 0.38 | 95 | 1009.3 |
| 20260506235037 | 10 | 223 | 4.8 | 9.7 | 0.23 | 2.69 | 0.33 | 95 | 1009.1 |
| 20260506234029 | 10 | 212 | 6.4 | 11.3 | 0.20 | 2.64 | 0.30 | 95 | 1009.1 |
| 20260506233141 | 10 | 204 | 4.8 | 11.3 | 0.18 | 2.62 | 0.25 | 93 | 1009.1 |
| 20260506232043 | 10 | 199 | 6.4 | 16.1 | 0.18 | 2.57 | 0.23 | 92 | 1008.8 |
| 20260506231055 | 11 | 212 | 3.2 | 8.0 | 0.15 | 2.51 | 0.18 | 92 | 1008.7 |
| 20260506230046 | 11 | 157 | 6.4 | 11.3 | 0.13 | 2.49 | 0.15 | 91 | 1008.7 |
| 20260506225018 | 11 | 152 | 3.2 | 9.7 | 0.13 | 2.46 | 0.13 | 91 | 1008.7 |
| 20260506224039 | 11 | 101 | 6.4 | 14.5 | 0.13 | 2.44 | 0.10 | 90 | 1008.6 |
| 20260506223032 | 11 | 153 | 4.8 | 11.3 | 0.13 | 2.41 | 0.08 | 91 | 1008.5 |
| 20260506222023 | 11 | 136 | 6.4 | 14.5 | 0.15 | 2.39 | 0.05 | 92 | 1008.5 |
| 20260506221126 | 11 | 138 | 4.8 | 9.7 | 0.18 | 2.39 | 0.03 | 92 | 1008.5 |
| 20260506220036 | 11 | 125 | 3.2 | 8.0 | 0.23 | 2.36 | 0.00 | 93 | 1008.5 |
| 20260506215028 | 11 | 147 | 4.8 | 9.7 | 0.28 | 2.34 | 2.34 | 92 | 1008.5 |
| 20260506214020 | 11 | 140 | 4.8 | 12.9 | 0.33 | 2.31 | 2.31 | 92 | 1008.4 |
| 20260506213042 | 11 | 144 | 6.4 | 12.9 | 0.33 | 2.29 | 2.29 | 92 | 1008.5 |
| 20260506212033 | 11 | 133 | 4.8 | 11.3 | 0.33 | 2.24 | 2.24 | 92 | 1008.4 |
| 20260506211026 | 11 | 136 | 4.8 | 8.0 | 0.36 | 2.18 | 2.18 | 92 | 1008.5 |
| 20260506210017 | 11 | 126 | 4.8 | 9.7 | 0.38 | 2.13 | 2.13 | 91 | 1008.3 |
| 20260506205039 | 11 | 142 | 3.2 | 8.0 | 0.38 | 2.06 | 2.06 | 92 | 1008.3 |
| 20260506204031 | 11 | 127 | 4.8 | 9.7 | 0.41 | 2.01 | 2.01 | 92 | 1008.3 |
| 20260506203042 | 11 | 132 | 6.4 | 12.9 | 0.43 | 1.96 | 1.96 | 93 | 1008.3 |
| 20260506202044 | 11 | 131 | 6.4 | 12.9 | 0.46 | 1.91 | 1.91 | 92 | 1008.3 |
| 20260506201036 | 11 | 144 | 4.8 | 16.1 | 0.46 | 1.83 | 1.83 | 93 | 1008.2 |
| 20260506200027 | 11 | 148 | 4.8 | 12.9 | 0.43 | 1.75 | 1.75 | 93 | 1008.1 |
| 20260506195019 | 11 | 188 | 3.2 | 8.0 | 0.43 | 1.68 | 1.68 | 93 | 1008.0 |
| 20260506194041 | 11 | 129 | 4.8 | 12.9 | 0.43 | 1.60 | 1.60 | 93 | 1007.9 |
| 20260506193032 | 11 | 173 | 6.4 | 14.5 | 0.43 | 1.52 | 1.52 | 92 | 1007.8 |
| 20260506192024 | 11 | 165 | 6.4 | 14.5 | 0.41 | 1.45 | 1.45 | 92 | 1007.7 |
| 20260506191046 | 11 | 190 | 4.8 | 12.9 | 0.38 | 1.37 | 1.37 | 92 | 1007.6 |
| 20260506190037 | 11 | 192 | 4.8 | 9.7 | 0.38 | 1.32 | 1.32 | 92 | 1007.4 |
| 20260506185028 | 11 | 184 | 4.8 | 8.0 | 0.33 | 1.24 | 1.24 | 92 | 1007.3 |
| 20260506184019 | 11 | 205 | 3.2 | 6.4 | 0.30 | 1.17 | 1.17 | 91 | 1007.1 |
| 20260506183041 | 11 | 151 | 4.8 | 9.7 | 0.25 | 1.09 | 1.09 | 91 | 1006.9 |
| 20260506182032 | 11 | 144 | 4.8 | 9.7 | 0.23 | 1.04 | 1.04 | 91 | 1006.9 |
| 20260506181023 | 11 | 142 | 3.2 | 6.4 | 0.20 | 0.99 | 0.99 | 91 | 1006.7 |
| 20260506180045 | 11 | 175 | 6.4 | 12.9 | 0.15 | 0.94 | 0.94 | 90 | 1006.5 |
| 20260506175037 | 12 | 142 | 3.2 | 9.7 | 0.15 | 0.89 | 0.89 | 89 | 1006.4 |
| 20260506174028 | 12 | 209 | 6.4 | 9.7 | 0.10 | 0.86 | 0.86 | 89 | 1006.3 |
| 20260506173019 | 12 | 167 | 6.4 | 12.9 | 0.08 | 0.84 | 0.84 | 87 | 1006.0 |
| 20260506172041 | 12 | 204 | 6.4 | 9.7 | 0.05 | 0.94 | 0.81 | 88 | 1006.0 |
| 20260506171032 | 12 | 174 | 4.8 | 11.3 | 0.05 | 1.07 | 0.79 | 88 | 1005.8 |
| 20260506170024 | 12 | 160 | 4.8 | 9.7 | 0.05 | 1.14 | 0.79 | 88 | 1006.0 |
| 20260506165046 | 12 | 216 | 4.8 | 11.3 | 0.03 | 1.14 | 0.76 | 87 | 1005.9 |
| 20260506164037 | 12 | 144 | 6.4 | 17.7 | 0.05 | 1.19 | 0.76 | 87 | 1006.0 |
| 20260506163029 | 12 | 141 | 3.2 | 8.0 | 0.08 | 1.22 | 0.76 | 87 | 1005.9 |
| 20260506162021 | 12 | 149 | 4.8 | 9.7 | 0.13 | 1.24 | 0.76 | 87 | 1005.9 |
| 20260506161043 | 12 | 159 | 4.8 | 8.0 | 0.23 | 1.22 | 0.74 | 88 | 1005.9 |
| 20260506160033 | 12 | 154 | 3.2 | 6.4 | 0.28 | 1.22 | 0.74 | 88 | 1006.0 |
| 20260506155025 | 12 | 152 | 4.8 | 8.0 | 0.36 | 1.22 | 0.74 | 89 | 1006.0 |
| 20260506154017 | 12 | 135 | 4.8 | 9.7 | 0.43 | 1.19 | 0.71 | 91 | 1006.0 |
| 20260506153038 | 12 | 135 | 4.8 | 8.0 | 0.48 | 1.17 | 0.69 | 92 | 1005.9 |
| 20260506152053 | 12 | 161 | 6.4 | 12.9 | 0.46 | 1.12 | 0.61 | 92 | 1006.0 |
| 20260506151019 | 12 | 189 | 6.4 | 12.9 | 0.36 | 1.02 | 0.51 | 91 | 1005.9 |
| 20260506150041 | 12 | 144 | 6.4 | 19.3 | 0.30 | 0.94 | 0.46 | 91 | 1005.6 |
| 20260506145032 | 12 | 130 | 9.7 | 16.1 | 0.23 | 0.86 | 0.38 | 91 | 1005.6 |
| 20260506144023 | 12 | 138 | 6.4 | 16.1 | 0.15 | 0.79 | 0.28 | 91 | 1005.6 |
| 20260506143046 | 12 | 133 | 6.4 | 14.5 | 0.10 | 0.69 | 0.20 | 90 | 1005.5 |
| 20260506142037 | 13 | 148 | 6.4 | 14.5 | 0.10 | 0.66 | 0.18 | 88 | 1005.4 |
| 20260506141048 | 13 | 155 | 8.0 | 16.1 | 0.15 | 0.66 | 0.15 | 86 | 1005.3 |
| 20260506140020 | 13 | 113 | 1.6 | 8.0 | 0.15 | 0.64 | 0.15 | 86 | 1005.3 |
| 20260506135042 | 13 | 150 | 4.8 | 12.9 | 0.15 | 0.64 | 0.15 | 89 | 1005.2 |
| 20260506134033 | 13 | 129 | 4.8 | 8.0 | 0.13 | 0.61 | 0.13 | 89 | 1005.1 |
| 20260506133025 | 13 | 189 | 4.8 | 9.7 | 0.10 | 0.58 | 0.10 | 87 | 1005.1 |
| 20260506132041 | 14 | 213 | 4.8 | 11.3 | 0.08 | 0.56 | 0.08 | 81 | 1005.0 |